Time;durP1;ratioP1;P1;durP2;ratioP2;P2;SDS_P1;SDS_P2;PMS_P1;PMS_P2;Temp;Humidity;BMP_temperature;BMP_pressure;BME280_temperature;BME280_humidity;BME280_pressure;Samples;Min_cycle;Max_cycle;Signal;HPM_P1;HPM_P2
2021/07/18 00:01:25;;;;;;;11.13;6.60;;;;;;;;;;5094216;28;20368;-49
2021/07/18 00:03:51;;;;;;;17.95;7.22;;;;;;;;;;5094171;28;20088;-49
2021/07/18 00:06:16;;;;;;;13.27;7.10;;;;;;;;;;5094827;28;20020;-50
2021/07/18 00:08:43;;;;;;;23.75;7.97;;;;;;;;;;5094312;28;20047;-50
2021/07/18 00:11:09;;;;;;;15.93;7.18;;;;;;;;;;5093331;28;20031;-50
2021/07/18 00:13:36;;;;;;;17.42;7.07;;;;;;;;;;5094294;28;20031;-49
2021/07/18 00:16:02;;;;;;;13.48;7.40;;;;;;;;;;5094230;28;20018;-50
2021/07/18 00:18:28;;;;;;;13.75;6.43;;;;;;;;;;5094639;28;20028;-49
2021/07/18 00:20:54;;;;;;;17.65;6.63;;;;;;;;;;5093731;28;20039;-50
2021/07/18 00:23:20;;;;;;;13.93;6.22;;;;;;;;;;5093994;28;20441;-50
2021/07/18 00:25:46;;;;;;;12.82;6.25;;;;;;;;;;5094750;28;20085;-50
2021/07/18 00:28:12;;;;;;;10.38;6.15;;;;;;;;;;5093907;28;20028;-49
2021/07/18 00:30:38;;;;;;;11.32;6.30;;;;;;;;;;5093672;28;20051;-49
2021/07/18 00:33:06;;;;;;;12.07;5.03;;;;;;;;;;5094052;28;20035;-49
2021/07/18 00:35:32;;;;;;;14.55;6.60;;;;;;;;;;5094045;28;20059;-50
2021/07/18 00:37:58;;;;;;;15.35;6.28;;;;;;;;;;5093556;28;20084;-49
2021/07/18 00:40:24;;;;;;;17.90;6.60;;;;;;;;;;5093748;28;20059;-49
2021/07/18 00:42:50;;;;;;;11.85;5.45;;;;;;;;;;5092806;28;20358;-50
2021/07/18 00:45:16;;;;;;;13.18;6.90;;;;;;;;;;5093845;28;20354;-50
2021/07/18 00:47:42;;;;;;;7.55;4.82;;;;;;;;;;5093918;28;20099;-50
2021/07/18 00:50:13;;;;;;;11.63;5.35;;;;;;;;;;5093510;28;20024;-50
2021/07/18 00:52:40;;;;;;;11.30;4.80;;;;;;;;;;5092998;28;20031;-50
2021/07/18 00:55:07;;;;;;;12.05;5.65;;;;;;;;;;5093849;28;20126;-50
2021/07/18 00:57:33;;;;;;;12.52;5.85;;;;;;;;;;5093698;28;20028;-50
2021/07/18 01:00:07;;;;;;;9.70;4.75;;;;;;;;;;5091639;28;20331;-49
2021/07/18 01:02:33;;;;;;;9.07;5.10;;;;;;;;;;5093237;28;20020;-50
2021/07/18 01:04:59;;;;;;;9.23;4.20;;;;;;;;;;5093255;28;20040;-50
2021/07/18 01:07:26;;;;;;;7.10;4.53;;;;;;;;;;5093478;28;20517;-49
2021/07/18 01:09:52;;;;;;;12.93;4.10;;;;;;;;;;5093258;28;20028;-49
2021/07/18 01:12:18;;;;;;;14.68;4.65;;;;;;;;;;5093232;28;20055;-50
2021/07/18 01:14:45;;;;;;;7.65;4.43;;;;;;;;;;5093215;28;20023;-50
2021/07/18 01:17:11;;;;;;;8.05;3.67;;;;;;;;;;5093683;28;20027;-50
2021/07/18 01:19:38;;;;;;;6.10;3.25;;;;;;;;;;5093133;28;20047;-50
2021/07/18 01:22:04;;;;;;;25.75;3.63;;;;;;;;;;5091638;28;20038;-50
2021/07/18 01:24:31;;;;;;;9.52;4.90;;;;;;;;;;5093249;28;20457;-49
2021/07/18 01:26:57;;;;;;;10.88;3.53;;;;;;;;;;5093523;28;20078;-50
2021/07/18 01:29:24;;;;;;;9.82;3.75;;;;;;;;;;5092939;28;20124;-50
2021/07/18 01:31:50;;;;;;;6.63;3.88;;;;;;;;;;5092261;28;20030;-50
2021/07/18 01:34:16;;;;;;;8.18;3.00;;;;;;;;;;5092795;28;20035;-50
2021/07/18 01:36:42;;;;;;;5.18;2.85;;;;;;;;;;5093148;28;20084;-49
2021/07/18 01:39:09;;;;;;;4.53;2.65;;;;;;;;;;5092957;28;20471;-49
2021/07/18 01:41:35;;;;;;;8.70;3.67;;;;;;;;;;5089122;28;20027;-49
2021/07/18 01:44:02;;;;;;;8.43;3.28;;;;;;;;;;5072655;28;20081;-49
2021/07/18 01:46:29;;;;;;;5.03;2.95;;;;;;;;;;5072849;28;20125;-49
2021/07/18 01:48:55;;;;;;;4.10;2.75;;;;;;;;;;5072465;28;20024;-49
2021/07/18 01:51:22;;;;;;;3.25;2.45;;;;;;;;;;5071924;28;20048;-50
2021/07/18 01:53:52;;;;;;;4.53;3.00;;;;;;;;;;5072316;28;20542;-49
2021/07/18 01:56:19;;;;;;;20.77;3.13;;;;;;;;;;5073012;28;20509;-49
2021/07/18 01:58:46;;;;;;;7.45;3.25;;;;;;;;;;5072249;28;20060;-50
2021/07/18 02:01:12;;;;;;;3.33;2.20;;;;;;;;;;5071771;28;20033;-50
2021/07/18 02:03:38;;;;;;;4.90;2.67;;;;;;;;;;5072795;28;20428;-49
2021/07/18 02:06:04;;;;;;;9.95;3.33;;;;;;;;;;5072692;28;20025;-49
2021/07/18 02:08:30;;;;;;;7.60;2.75;;;;;;;;;;5072729;28;20025;-50
2021/07/18 02:10:56;;;;;;;3.28;2.15;;;;;;;;;;5071494;28;20028;-49
2021/07/18 02:13:22;;;;;;;6.68;2.50;;;;;;;;;;5072455;28;20468;-49
2021/07/18 02:15:49;;;;;;;10.43;2.80;;;;;;;;;;5072455;28;20071;-49
2021/07/18 02:18:15;;;;;;;7.15;2.47;;;;;;;;;;5072338;28;20041;-50
2021/07/18 02:20:41;;;;;;;8.32;2.83;;;;;;;;;;5077708;28;20032;-50
2021/07/18 02:23:08;;;;;;;4.30;2.22;;;;;;;;;;5092782;28;20422;-50
2021/07/18 02:25:34;;;;;;;4.75;3.00;;;;;;;;;;5091965;28;20039;-49
2021/07/18 02:28:00;;;;;;;8.10;3.38;;;;;;;;;;5092728;28;20024;-50
2021/07/18 02:30:26;;;;;;;8.63;3.17;;;;;;;;;;5092211;28;20449;-50
2021/07/18 02:32:53;;;;;;;4.72;2.78;;;;;;;;;;5092894;28;20020;-50
2021/07/18 02:35:19;;;;;;;7.75;3.42;;;;;;;;;;5096360;28;20022;-49
2021/07/18 02:37:45;;;;;;;4.88;3.13;;;;;;;;;;5096439;28;20028;-50
2021/07/18 02:40:12;;;;;;;5.47;2.90;;;;;;;;;;5095990;28;20434;-50
2021/07/18 02:42:39;;;;;;;5.18;2.40;;;;;;;;;;5095516;28;20032;-50
2021/07/18 02:45:06;;;;;;;9.02;3.00;;;;;;;;;;5095859;28;20042;-50
2021/07/18 02:47:32;;;;;;;7.70;2.22;;;;;;;;;;5096458;28;20396;-50
2021/07/18 02:49:58;;;;;;;5.18;2.60;;;;;;;;;;5092526;28;20085;-49
2021/07/18 02:52:24;;;;;;;8.10;2.80;;;;;;;;;;5075303;28;20028;-49
2021/07/18 02:54:50;;;;;;;4.22;2.70;;;;;;;;;;5075292;28;20331;-49
2021/07/18 02:57:17;;;;;;;9.30;2.28;;;;;;;;;;5075779;28;20438;-49
2021/07/18 02:59:43;;;;;;;3.75;2.60;;;;;;;;;;5075671;28;20036;-49
2021/07/18 03:02:09;;;;;;;4.55;2.58;;;;;;;;;;5074757;28;20066;-49
2021/07/18 03:04:35;;;;;;;4.97;2.47;;;;;;;;;;5075660;28;20044;-49
2021/07/18 03:07:01;;;;;;;5.80;2.60;;;;;;;;;;5075108;28;20024;-49
2021/07/18 03:09:27;;;;;;;4.70;2.85;;;;;;;;;;5075596;28;20121;-49
2021/07/18 03:11:54;;;;;;;12.20;2.92;;;;;;;;;;5074741;28;20020;-49
2021/07/18 03:14:20;;;;;;;7.50;3.15;;;;;;;;;;5075665;28;20154;-49
2021/07/18 03:16:50;;;;;;;7.95;2.10;;;;;;;;;;5075337;28;20093;-49
2021/07/18 03:19:16;;;;;;;4.90;2.65;;;;;;;;;;5075349;28;20471;-49
2021/07/18 03:21:42;;;;;;;6.95;2.47;;;;;;;;;;5074403;28;20123;-49
2021/07/18 03:24:08;;;;;;;6.38;2.40;;;;;;;;;;5075241;28;20334;-49
2021/07/18 03:26:35;;;;;;;4.55;3.00;;;;;;;;;;5075212;28;20124;-49
2021/07/18 03:29:01;;;;;;;9.43;2.40;;;;;;;;;;5075050;28;20028;-49
2021/07/18 03:31:27;;;;;;;5.28;2.58;;;;;;;;;;5073058;28;20024;-50
2021/07/18 03:33:53;;;;;;;5.13;2.63;;;;;;;;;;5075213;28;20020;-50
2021/07/18 03:36:19;;;;;;;5.28;2.78;;;;;;;;;;5074454;28;20074;-50
2021/07/18 03:38:45;;;;;;;5.18;3.40;;;;;;;;;;5075050;28;20383;-49
2021/07/18 03:41:11;;;;;;;9.27;2.92;;;;;;;;;;5074158;28;20024;-49
2021/07/18 03:43:37;;;;;;;3.75;2.22;;;;;;;;;;5075036;28;20029;-49
2021/07/18 03:46:03;;;;;;;3.25;2.28;;;;;;;;;;5073997;28;20035;-49
2021/07/18 03:48:31;;;;;;;4.18;2.50;;;;;;;;;;5074956;28;20078;-49
2021/07/18 03:50:57;;;;;;;3.42;2.60;;;;;;;;;;5073608;28;20043;-49
2021/07/18 03:53:23;;;;;;;6.10;3.00;;;;;;;;;;5075364;28;20021;-50
2021/07/18 03:55:49;;;;;;;6.60;2.55;;;;;;;;;;5074219;28;20044;-49
2021/07/18 03:58:15;;;;;;;3.80;1.90;;;;;;;;;;5074890;28;20017;-49
2021/07/18 04:00:41;;;;;;;6.05;2.50;;;;;;;;;;5073728;28;20505;-50
2021/07/18 04:03:07;;;;;;;13.45;2.95;;;;;;;;;;5074162;28;20024;-50
2021/07/18 04:05:33;;;;;;;6.88;2.22;;;;;;;;;;5074135;28;20331;-49
2021/07/18 04:07:59;;;;;;;7.03;2.15;;;;;;;;;;5074280;28;20028;-50
2021/07/18 04:10:25;;;;;;;5.18;2.75;;;;;;;;;;5074423;28;20376;-50
2021/07/18 04:12:52;;;;;;;7.05;2.10;;;;;;;;;;5073373;28;20331;-50
2021/07/18 04:15:18;;;;;;;4.13;2.50;;;;;;;;;;5074469;28;20450;-50
2021/07/18 04:17:44;;;;;;;4.35;1.60;;;;;;;;;;5073698;28;20032;-49
2021/07/18 04:20:10;;;;;;;2.55;1.80;;;;;;;;;;5073934;28;20723;-49
2021/07/18 04:22:36;;;;;;;3.35;1.60;;;;;;;;;;5073045;28;20040;-50
2021/07/18 04:25:02;;;;;;;4.38;1.90;;;;;;;;;;5078825;28;20041;-49
2021/07/18 04:27:28;;;;;;;6.70;2.38;;;;;;;;;;5082787;28;20033;-50
2021/07/18 04:29:54;;;;;;;2.83;2.00;;;;;;;;;;5073716;28;20070;-50
2021/07/18 04:32:20;;;;;;;5.35;2.65;;;;;;;;;;5073171;28;20021;-49
2021/07/18 04:34:46;;;;;;;3.90;1.85;;;;;;;;;;5073530;28;20395;-50
2021/07/18 04:37:13;;;;;;;2.53;2.20;;;;;;;;;;5073934;28;20027;-50
2021/07/18 04:39:39;;;;;;;3.83;2.05;;;;;;;;;;5086773;28;20051;-50
2021/07/18 04:42:05;;;;;;;2.83;1.92;;;;;;;;;;5082258;28;20024;-50
2021/07/18 04:44:32;;;;;;;3.25;2.20;;;;;;;;;;5079815;28;20043;-50
2021/07/18 04:46:58;;;;;;;5.05;2.00;;;;;;;;;;5073460;28;20050;-50
2021/07/18 04:49:24;;;;;;;9.65;2.22;;;;;;;;;;5073417;28;20032;-49
2021/07/18 04:51:51;;;;;;;2.65;1.70;;;;;;;;;;5072546;28;20021;-50
2021/07/18 04:54:17;;;;;;;2.78;2.33;;;;;;;;;;5087419;28;20449;-50
2021/07/18 04:56:43;;;;;;;3.70;1.83;;;;;;;;;;5092357;28;20019;-49
2021/07/18 04:59:09;;;;;;;3.42;2.22;;;;;;;;;;5093453;28;20111;-50
2021/07/18 05:01:35;;;;;;;5.43;2.60;;;;;;;;;;5092965;28;20062;-49
2021/07/18 05:04:01;;;;;;;11.02;1.85;;;;;;;;;;5093430;28;20116;-49
2021/07/18 05:06:27;;;;;;;3.83;1.77;;;;;;;;;;5093591;28;20449;-49
2021/07/18 05:08:53;;;;;;;4.03;2.35;;;;;;;;;;5093516;28;20020;-49
2021/07/18 05:11:20;;;;;;;7.00;2.47;;;;;;;;;;5092388;28;20097;-51
2021/07/18 05:13:46;;;;;;;2.85;1.80;;;;;;;;;;5082854;28;20043;-50
2021/07/18 05:16:12;;;;;;;2.85;1.52;;;;;;;;;;5088629;28;20035;-49
2021/07/18 05:18:39;;;;;;;3.72;2.00;;;;;;;;;;5093109;28;20039;-50
2021/07/18 05:21:04;;;;;;;4.05;1.70;;;;;;;;;;5087154;28;20039;-50
2021/07/18 05:23:30;;;;;;;4.78;1.92;;;;;;;;;;5093521;28;20514;-49
2021/07/18 05:25:58;;;;;;;8.15;1.70;;;;;;;;;;5093085;28;20373;-50
2021/07/18 05:28:24;;;;;;;2.78;2.13;;;;;;;;;;5093540;28;20077;-49
2021/07/18 05:30:50;;;;;;;10.23;1.45;;;;;;;;;;5092292;28;20028;-50
2021/07/18 05:33:16;;;;;;;3.30;1.83;;;;;;;;;;5093055;28;20020;-50
2021/07/18 05:35:42;;;;;;;5.95;1.83;;;;;;;;;;5093228;28;20066;-50
2021/07/18 05:38:08;;;;;;;5.53;1.58;;;;;;;;;;5092866;28;20044;-50
2021/07/18 05:40:34;;;;;;;2.05;1.58;;;;;;;;;;5092599;28;20059;-50
2021/07/18 05:43:00;;;;;;;5.07;1.65;;;;;;;;;;5092453;28;20020;-50
2021/07/18 05:45:26;;;;;;;4.60;2.10;;;;;;;;;;5075676;28;20051;-50
2021/07/18 05:47:52;;;;;;;4.43;1.27;;;;;;;;;;5075073;28;20110;-49
2021/07/18 05:50:18;;;;;;;4.30;1.75;;;;;;;;;;5074471;28;20025;-49
2021/07/18 05:52:44;;;;;;;6.97;2.03;;;;;;;;;;5091765;28;20027;-50
2021/07/18 05:55:11;;;;;;;3.20;1.77;;;;;;;;;;5092797;28;20105;-50
2021/07/18 05:57:37;;;;;;;4.35;1.83;;;;;;;;;;5089632;28;20368;-50
2021/07/18 06:00:05;;;;;;;5.88;1.88;;;;;;;;;;5092032;28;20031;-49
2021/07/18 06:02:31;;;;;;;3.33;1.63;;;;;;;;;;5076766;28;20021;-49
2021/07/18 06:04:57;;;;;;;3.17;2.15;;;;;;;;;;5091520;28;20087;-50
2021/07/18 06:07:23;;;;;;;7.97;2.80;;;;;;;;;;5077632;28;20437;-50
2021/07/18 06:09:49;;;;;;;4.82;1.60;;;;;;;;;;5075303;28;20085;-50
2021/07/18 06:12:15;;;;;;;5.20;2.72;;;;;;;;;;5076781;28;20446;-50
2021/07/18 06:14:43;;;;;;;4.00;2.22;;;;;;;;;;5093797;28;20028;-50
2021/07/18 06:17:09;;;;;;;4.38;2.50;;;;;;;;;;5094555;28;20028;-50
2021/07/18 06:19:35;;;;;;;5.88;1.83;;;;;;;;;;5096568;28;20107;-49
2021/07/18 06:22:01;;;;;;;7.60;2.20;;;;;;;;;;5084047;28;20025;-50
2021/07/18 06:24:27;;;;;;;3.13;1.98;;;;;;;;;;5079691;28;20085;-50
2021/07/18 06:26:53;;;;;;;3.38;2.45;;;;;;;;;;5096372;28;20024;-50
2021/07/18 06:29:19;;;;;;;3.97;2.00;;;;;;;;;;5095989;28;20020;-50
2021/07/18 06:31:45;;;;;;;3.90;2.30;;;;;;;;;;5095440;28;20031;-51
2021/07/18 06:34:11;;;;;;;7.45;3.03;;;;;;;;;;5096649;28;20016;-50
2021/07/18 06:36:37;;;;;;;4.72;2.08;;;;;;;;;;5095935;28;20089;-49
2021/07/18 06:39:03;;;;;;;7.88;2.20;;;;;;;;;;5096278;28;20081;-50
2021/07/18 06:41:29;;;;;;;5.07;2.00;;;;;;;;;;5095711;28;20437;-49
2021/07/18 06:43:55;;;;;;;8.50;2.50;;;;;;;;;;5096193;28;20088;-50
2021/07/18 06:46:21;;;;;;;10.90;2.33;;;;;;;;;;5096329;28;20047;-50
2021/07/18 06:48:47;;;;;;;6.57;2.40;;;;;;;;;;5095853;28;20024;-50
2021/07/18 06:51:13;;;;;;;6.82;2.40;;;;;;;;;;5078806;28;20024;-50
2021/07/18 06:53:39;;;;;;;2.63;2.10;;;;;;;;;;5074713;28;20024;-50
2021/07/18 06:56:05;;;;;;;6.75;3.10;;;;;;;;;;5082439;28;20020;-50
2021/07/18 06:58:31;;;;;;;12.85;2.85;;;;;;;;;;5095242;28;20028;-50
2021/07/18 07:00:57;;;;;;;8.60;3.13;;;;;;;;;;5092508;28;20025;-50
2021/07/18 07:03:23;;;;;;;5.88;2.80;;;;;;;;;;5094723;28;20059;-50
2021/07/18 07:05:49;;;;;;;5.38;2.78;;;;;;;;;;5095170;28;20039;-50
2021/07/18 07:08:15;;;;;;;3.20;2.53;;;;;;;;;;5095436;28;20020;-50
2021/07/18 07:10:41;;;;;;;5.93;3.20;;;;;;;;;;5095029;28;20067;-50
2021/07/18 07:13:07;;;;;;;5.72;2.85;;;;;;;;;;5095817;28;20039;-50
2021/07/18 07:15:34;;;;;;;8.00;3.50;;;;;;;;;;5084493;28;20059;-50
2021/07/18 07:18:00;;;;;;;11.65;3.70;;;;;;;;;;5075612;28;20016;-50
2021/07/18 07:20:28;;;;;;;7.60;2.72;;;;;;;;;;5075043;28;20078;-50
2021/07/18 07:22:54;;;;;;;10.00;3.72;;;;;;;;;;5094262;28;20032;-50
2021/07/18 07:25:20;;;;;;;3.75;2.70;;;;;;;;;;5094942;28;20038;-50
2021/07/18 07:27:46;;;;;;;11.38;3.33;;;;;;;;;;5095248;28;20028;-50
2021/07/18 07:30:13;;;;;;;10.55;3.45;;;;;;;;;;5095274;28;20024;-50
2021/07/18 07:32:39;;;;;;;13.13;3.72;;;;;;;;;;5076547;28;20437;-50
2021/07/18 07:35:06;;;;;;;11.65;4.20;;;;;;;;;;5094748;28;20062;-50
2021/07/18 07:37:34;;;;;;;9.00;3.65;;;;;;;;;;5081901;28;20104;-50
2021/07/18 07:40:00;;;;;;;8.50;4.05;;;;;;;;;;5074742;28;20025;-50
2021/07/18 07:42:26;;;;;;;20.88;4.65;;;;;;;;;;5076047;28;20025;-50
2021/07/18 07:44:52;;;;;;;16.77;5.88;;;;;;;;;;5082922;28;20036;-50
2021/07/18 07:47:18;;;;;;;9.15;4.07;;;;;;;;;;5094479;28;20032;-50
2021/07/18 07:49:45;;;;;;;7.90;4.32;;;;;;;;;;5092557;28;20024;-50
2021/07/18 07:52:11;;;;;;;7.13;3.58;;;;;;;;;;5073844;28;20082;-50
2021/07/18 07:54:38;;;;;;;12.45;4.95;;;;;;;;;;5074164;28;20089;-50
2021/07/18 07:57:04;;;;;;;12.63;3.85;;;;;;;;;;5074938;28;20200;-50
2021/07/18 07:59:30;;;;;;;9.23;3.47;;;;;;;;;;5073951;28;20362;-50
2021/07/18 08:01:56;;;;;;;10.65;3.10;;;;;;;;;;5078166;28;20036;-50
2021/07/18 08:04:22;;;;;;;8.35;3.65;;;;;;;;;;5087474;28;20037;-50
2021/07/18 08:06:48;;;;;;;15.10;4.80;;;;;;;;;;5072381;28;20446;-50
2021/07/18 08:09:14;;;;;;;18.27;6.28;;;;;;;;;;5074295;28;20028;-50
2021/07/18 08:11:40;;;;;;;16.60;5.07;;;;;;;;;;5091874;28;20024;-50
2021/07/18 08:14:06;;;;;;;16.58;7.00;;;;;;;;;;5094206;28;20112;-50
2021/07/18 08:16:32;;;;;;;28.20;8.32;;;;;;;;;;5087519;28;20090;-50
2021/07/18 08:18:58;;;;;;;18.17;5.68;;;;;;;;;;5094526;28;20357;-50
2021/07/18 08:21:24;;;;;;;14.55;6.07;;;;;;;;;;5093680;28;20036;-50
2021/07/18 08:23:50;;;;;;;13.88;5.65;;;;;;;;;;5089168;28;20455;-50
2021/07/18 08:26:17;;;;;;;19.85;6.82;;;;;;;;;;5075443;28;20481;-50
2021/07/18 08:28:43;;;;;;;10.85;4.68;;;;;;;;;;5072281;28;20016;-50
2021/07/18 08:31:09;;;;;;;17.90;5.82;;;;;;;;;;5079365;28;20072;-50
2021/07/18 08:33:35;;;;;;;16.90;6.15;;;;;;;;;;5083043;28;20024;-50
2021/07/18 08:36:01;;;;;;;12.70;5.35;;;;;;;;;;5081638;28;20387;-50
2021/07/18 08:38:27;;;;;;;13.45;4.82;;;;;;;;;;5073781;28;20430;-50
2021/07/18 08:40:55;;;;;;;14.48;5.65;;;;;;;;;;5072736;28;20028;-50
2021/07/18 08:43:21;;;;;;;10.40;3.88;;;;;;;;;;5073587;28;20027;-50
2021/07/18 08:45:48;;;;;;;14.88;5.10;;;;;;;;;;5073111;28;20036;-50
2021/07/18 08:48:14;;;;;;;6.70;3.95;;;;;;;;;;5073565;28;20040;-51
2021/07/18 08:50:41;;;;;;;6.35;3.33;;;;;;;;;;5072549;28;20025;-51
2021/07/18 08:53:07;;;;;;;10.50;3.97;;;;;;;;;;5073436;28;20524;-51
2021/07/18 08:55:33;;;;;;;7.82;3.80;;;;;;;;;;5073488;28;20032;-50
2021/07/18 08:57:59;;;;;;;10.93;3.83;;;;;;;;;;5073207;28;20033;-50
2021/07/18 09:00:25;;;;;;;7.05;3.47;;;;;;;;;;5073381;28;20020;-51
2021/07/18 09:02:51;;;;;;;5.53;2.60;;;;;;;;;;5072644;28;20029;-51
2021/07/18 09:05:17;;;;;;;17.17;3.42;;;;;;;;;;5073204;28;20068;-51
2021/07/18 09:07:44;;;;;;;4.20;2.95;;;;;;;;;;5073270;28;20480;-50
2021/07/18 09:10:10;;;;;;;8.85;4.43;;;;;;;;;;5073239;28;20035;-50
2021/07/18 09:12:36;;;;;;;7.28;4.40;;;;;;;;;;5072448;28;20017;-50
2021/07/18 09:15:03;;;;;;;10.52;3.72;;;;;;;;;;5073018;28;20373;-51
2021/07/18 09:17:37;;;;;;;6.13;3.13;;;;;;;;;;5073087;28;20111;-51
2021/07/18 09:20:12;;;;;;;6.95;4.13;;;;;;;;;;5072833;28;20051;-51
2021/07/18 09:22:38;;;;;;;13.02;5.05;;;;;;;;;;5072121;28;20127;-50
2021/07/18 09:25:04;;;;;;;10.23;3.97;;;;;;;;;;5074315;28;20059;-51
2021/07/18 09:27:34;;;;;;;6.63;4.25;;;;;;;;;;5071823;28;20021;-50
2021/07/18 09:30:10;;;;;;;7.43;3.78;;;;;;;;;;5072864;28;20081;-51
2021/07/18 09:32:38;;;;;;;8.70;3.97;;;;;;;;;;5072197;28;20063;-51
2021/07/18 09:35:04;;;;;;;12.23;4.28;;;;;;;;;;5073373;28;20056;-51
2021/07/18 09:37:34;;;;;;;9.15;4.53;;;;;;;;;;5072554;28;20104;-50
2021/07/18 09:40:02;;;;;;;9.07;4.00;;;;;;;;;;5072713;28;20024;-51
2021/07/18 09:42:33;;;;;;;10.55;4.18;;;;;;;;;;5071542;28;20035;-51
2021/07/18 09:45:00;;;;;;;5.97;4.13;;;;;;;;;;5072938;28;20343;-51
2021/07/18 09:47:27;;;;;;;10.02;4.78;;;;;;;;;;5072906;28;20017;-50
2021/07/18 09:49:53;;;;;;;8.20;4.20;;;;;;;;;;5072439;28;20040;-50
2021/07/18 09:52:21;;;;;;;4.65;3.42;;;;;;;;;;5071791;28;20374;-50
2021/07/18 09:54:48;;;;;;;10.07;3.70;;;;;;;;;;5072713;28;20052;-50
2021/07/18 09:57:29;;;;;;;10.68;3.40;;;;;;;;;;5072752;28;20170;-50
2021/07/18 09:59:55;;;;;;;11.63;4.72;;;;;;;;;;5072391;28;20040;-50
2021/07/18 10:02:28;;;;;;;9.68;4.18;;;;;;;;;;5072103;28;20421;-50
2021/07/18 10:04:54;;;;;;;9.57;3.40;;;;;;;;;;5072253;28;20036;-50
2021/07/18 10:07:22;;;;;;;7.75;3.95;;;;;;;;;;5072778;28;20017;-50
2021/07/18 10:09:48;;;;;;;9.60;4.22;;;;;;;;;;5072357;28;20086;-50
2021/07/18 10:12:14;;;;;;;12.05;3.95;;;;;;;;;;5071798;28;20517;-51
2021/07/18 10:14:41;;;;;;;5.45;3.47;;;;;;;;;;5073034;28;20081;-51
2021/07/18 10:17:07;;;;;;;6.63;3.67;;;;;;;;;;5072465;28;20100;-51
2021/07/18 10:19:33;;;;;;;9.02;3.65;;;;;;;;;;5072742;28;20025;-51
2021/07/18 10:22:00;;;;;;;7.35;3.22;;;;;;;;;;5071364;28;20036;-50
2021/07/18 10:24:27;;;;;;;12.48;4.07;;;;;;;;;;5072857;28;20033;-50
2021/07/18 10:26:53;;;;;;;7.72;3.70;;;;;;;;;;5072121;28;20067;-51
2021/07/18 10:29:19;;;;;;;14.48;4.43;;;;;;;;;;5072807;28;20112;-50
2021/07/18 10:31:49;;;;;;;6.05;3.85;;;;;;;;;;5071486;28;20032;-50
2021/07/18 10:34:18;;;;;;;7.30;4.13;;;;;;;;;;5072307;28;20024;-50
2021/07/18 10:36:44;;;;;;;8.57;3.90;;;;;;;;;;5072666;28;20064;-50
2021/07/18 10:39:29;;;;;;;8.80;3.88;;;;;;;;;;5072555;28;20051;-51
2021/07/18 10:41:55;;;;;;;5.85;3.38;;;;;;;;;;5071656;28;20024;-51
2021/07/18 10:44:21;;;;;;;9.18;3.47;;;;;;;;;;5070441;28;20036;-51
2021/07/18 10:46:47;;;;;;;6.18;2.72;;;;;;;;;;5072239;28;20021;-51
2021/07/18 10:49:14;;;;;;;5.38;2.88;;;;;;;;;;5071938;28;20127;-51
2021/07/18 10:51:41;;;;;;;10.73;4.60;;;;;;;;;;5071715;28;20123;-51
2021/07/18 10:54:08;;;;;;;9.93;3.22;;;;;;;;;;5073377;28;20311;-50
2021/07/18 10:56:43;;;;;;;9.52;3.40;;;;;;;;;;5075730;28;20059;-51
2021/07/18 10:59:09;;;;;;;4.10;2.42;;;;;;;;;;5075633;28;20036;-50
2021/07/18 11:01:39;;;;;;;3.95;2.28;;;;;;;;;;5074491;28;20441;-50
2021/07/18 11:04:06;;;;;;;3.13;1.98;;;;;;;;;;5075511;28;20056;-50
2021/07/18 11:06:37;;;;;;;11.75;3.33;;;;;;;;;;5075537;28;20032;-50
2021/07/18 11:09:06;;;;;;;4.65;3.03;;;;;;;;;;5075667;28;20073;-53
2021/07/18 11:11:48;;;;;;;8.30;3.28;;;;;;;;;;5074013;28;20158;-54
2021/07/18 11:14:26;;;;;;;4.35;2.50;;;;;;;;;;5075627;28;20366;-54
2021/07/18 11:17:00;;;;;;;8.52;3.53;;;;;;;;;;5077393;28;20016;-53
2021/07/18 11:19:38;;;;;;;6.95;2.90;;;;;;;;;;5095754;28;20403;-53
2021/07/18 11:22:08;;;;;;;3.50;2.30;;;;;;;;;;5094381;28;20075;-53
2021/07/18 11:24:53;;;;;;;5.85;2.53;;;;;;;;;;5095824;28;20032;-53
2021/07/18 11:27:22;;;;;;;3.47;2.13;;;;;;;;;;5094948;28;20358;-53
2021/07/18 11:29:48;;;;;;;7.72;2.55;;;;;;;;;;5095569;28;20111;-53
2021/07/18 11:32:20;;;;;;;6.22;2.38;;;;;;;;;;5094257;28;20460;-53
2021/07/18 11:34:46;;;;;;;4.95;2.20;;;;;;;;;;5095628;28;20035;-52
2021/07/18 11:37:14;;;;;;;9.75;2.33;;;;;;;;;;5095512;28;20017;-52
2021/07/18 11:39:42;;;;;;;5.53;2.38;;;;;;;;;;5095349;28;20028;-53
2021/07/18 11:42:09;;;;;;;5.38;2.47;;;;;;;;;;5094714;28;20060;-52
2021/07/18 11:44:36;;;;;;;8.00;3.28;;;;;;;;;;5082840;28;20074;-53
2021/07/18 11:47:03;;;;;;;4.13;2.45;;;;;;;;;;5093693;28;20028;-52
2021/07/18 11:49:30;;;;;;;8.43;2.30;;;;;;;;;;5095126;28;20023;-53
2021/07/18 11:51:56;;;;;;;5.35;2.38;;;;;;;;;;5091867;28;20046;-53
2021/07/18 11:54:22;;;;;;;4.15;1.70;;;;;;;;;;5085630;28;20024;-53
2021/07/18 11:56:50;;;;;;;6.50;2.20;;;;;;;;;;5094731;28;20028;-52
2021/07/18 11:59:21;;;;;;;8.57;2.55;;;;;;;;;;5078971;28;20116;-52
2021/07/18 12:01:49;;;;;;;3.90;2.00;;;;;;;;;;5088141;28;20069;-52
2021/07/18 12:04:16;;;;;;;4.82;2.35;;;;;;;;;;5081911;28;20036;-53
2021/07/18 12:06:42;;;;;;;3.55;1.88;;;;;;;;;;5093496;28;20027;-52
2021/07/18 12:09:15;;;;;;;2.08;1.75;;;;;;;;;;5091908;28;20028;-53
2021/07/18 12:11:41;;;;;;;2.67;1.67;;;;;;;;;;5091258;28;20031;-53
2021/07/18 12:14:08;;;;;;;3.92;2.08;;;;;;;;;;5093375;28;20051;-53
2021/07/18 12:16:34;;;;;;;5.20;2.17;;;;;;;;;;5093875;28;20380;-53
2021/07/18 12:19:00;;;;;;;2.58;2.03;;;;;;;;;;5094261;28;20125;-53
2021/07/18 12:21:31;;;;;;;4.47;1.90;;;;;;;;;;5093551;28;20036;-52
2021/07/18 12:24:10;;;;;;;3.80;2.08;;;;;;;;;;5093617;28;20056;-52
2021/07/18 12:26:37;;;;;;;6.88;2.22;;;;;;;;;;5093564;28;20436;-52
2021/07/18 12:29:06;;;;;;;3.78;2.15;;;;;;;;;;5094267;28;20028;-52
2021/07/18 12:31:32;;;;;;;2.22;1.70;;;;;;;;;;5093634;28;20016;-52
2021/07/18 12:33:58;;;;;;;4.82;2.10;;;;;;;;;;5094476;28;20021;-52
2021/07/18 12:36:24;;;;;;;4.75;1.83;;;;;;;;;;5093687;28;20334;-52
2021/07/18 12:38:50;;;;;;;3.80;2.38;;;;;;;;;;5093283;28;20061;-52
2021/07/18 12:41:16;;;;;;;3.42;1.67;;;;;;;;;;5093239;28;20028;-52
2021/07/18 12:43:42;;;;;;;2.85;1.67;;;;;;;;;;5090223;28;20021;-52
2021/07/18 12:46:12;;;;;;;9.60;2.10;;;;;;;;;;5073760;28;20036;-52
2021/07/18 12:48:38;;;;;;;4.28;1.45;;;;;;;;;;5073384;28;20069;-52
2021/07/18 12:51:14;;;;;;;2.05;1.60;;;;;;;;;;5072686;28;20036;-52
2021/07/18 12:53:40;;;;;;;2.47;1.92;;;;;;;;;;5086962;28;20043;-52
2021/07/18 12:56:08;;;;;;;8.07;1.77;;;;;;;;;;5093548;28;20560;-52
2021/07/18 12:58:37;;;;;;;4.75;1.90;;;;;;;;;;5093231;28;20016;-52
2021/07/18 13:01:12;;;;;;;3.13;1.58;;;;;;;;;;5092855;28;20028;-52
2021/07/18 13:03:40;;;;;;;1.70;1.60;;;;;;;;;;5091435;28;20435;-53
2021/07/18 13:06:19;;;;;;;10.88;1.80;;;;;;;;;;5093525;28;20111;-52
2021/07/18 13:08:46;;;;;;;5.95;1.38;;;;;;;;;;5093705;28;20020;-52
2021/07/18 13:11:31;;;;;;;5.05;2.38;;;;;;;;;;5092493;28;20065;-52
2021/07/18 13:13:57;;;;;;;4.60;1.70;;;;;;;;;;5092995;28;20046;-52
2021/07/18 13:16:36;;;;;;;2.72;1.85;;;;;;;;;;5093110;28;20054;-52
2021/07/18 13:19:12;;;;;;;4.57;2.00;;;;;;;;;;5092553;28;20031;-52
2021/07/18 13:21:38;;;;;;;6.50;1.67;;;;;;;;;;5090884;28;20032;-52
2021/07/18 13:24:04;;;;;;;4.70;2.40;;;;;;;;;;5092278;28;20049;-52
2021/07/18 13:26:41;;;;;;;4.20;1.98;;;;;;;;;;5092938;28;20024;-52
2021/07/18 13:29:11;;;;;;;3.92;2.00;;;;;;;;;;5091998;28;20031;-52
2021/07/18 13:31:37;;;;;;;6.85;1.88;;;;;;;;;;5092365;28;20343;-52
2021/07/18 13:34:04;;;;;;;11.82;1.80;;;;;;;;;;5093245;28;20119;-52
2021/07/18 13:36:30;;;;;;;1.95;1.75;;;;;;;;;;5093603;28;20020;-52
2021/07/18 13:39:06;;;;;;;4.10;1.90;;;;;;;;;;5092612;28;20035;-52
2021/07/18 13:41:32;;;;;;;5.50;2.10;;;;;;;;;;5083724;28;20073;-52
2021/07/18 13:43:58;;;;;;;7.20;2.10;;;;;;;;;;5092605;28;20111;-52
2021/07/18 13:46:24;;;;;;;4.05;1.90;;;;;;;;;;5093180;28;20038;-53
2021/07/18 13:48:50;;;;;;;3.42;1.95;;;;;;;;;;5092889;28;20038;-52
2021/07/18 13:51:16;;;;;;;4.68;1.88;;;;;;;;;;5092827;28;20158;-52
2021/07/18 13:53:42;;;;;;;7.50;2.33;;;;;;;;;;5092916;28;20099;-52
2021/07/18 13:56:08;;;;;;;3.75;1.90;;;;;;;;;;5093263;28;20016;-52
2021/07/18 13:58:33;;;;;;;2.83;1.80;;;;;;;;;;5092797;28;20062;-52
2021/07/18 14:01:01;;;;;;;4.28;2.30;;;;;;;;;;5092170;28;20048;-52
2021/07/18 14:03:27;;;;;;;7.80;2.90;;;;;;;;;;5093265;28;20028;-52
2021/07/18 14:05:53;;;;;;;3.60;1.83;;;;;;;;;;5092935;28;20042;-52
2021/07/18 14:08:19;;;;;;;7.00;1.67;;;;;;;;;;5093161;28;20060;-52
2021/07/18 14:10:45;;;;;;;2.58;1.70;;;;;;;;;;5091677;28;20071;-53
2021/07/18 14:13:12;;;;;;;2.35;1.48;;;;;;;;;;5092915;28;20017;-52
2021/07/18 14:15:39;;;;;;;4.65;2.55;;;;;;;;;;5092919;28;20024;-52
2021/07/18 14:18:07;;;;;;;5.25;3.03;;;;;;;;;;5092300;28;20357;-52
2021/07/18 14:20:33;;;;;;;5.00;2.03;;;;;;;;;;5091966;28;20027;-52
2021/07/18 14:23:00;;;;;;;3.95;1.90;;;;;;;;;;5093290;28;20035;-52
2021/07/18 14:25:27;;;;;;;8.13;1.83;;;;;;;;;;5092771;28;20342;-52
2021/07/18 14:27:54;;;;;;;5.13;1.70;;;;;;;;;;5090376;28;20445;-52
2021/07/18 14:30:21;;;;;;;3.47;1.85;;;;;;;;;;5075585;28;20028;-53
2021/07/18 14:32:48;;;;;;;4.40;2.13;;;;;;;;;;5076205;28;20029;-53
2021/07/18 14:35:14;;;;;;;5.60;2.25;;;;;;;;;;5084787;28;20118;-52
2021/07/18 14:37:40;;;;;;;6.25;2.35;;;;;;;;;;5096799;28;20039;-52
2021/07/18 14:40:08;;;;;;;7.20;2.10;;;;;;;;;;5096341;28;20543;-52